Syoueimaru — JL6084 — position and weather

sailwx.info

Track history (hours):
 
Tides and Currents Weather Stations Pressure Air Temp Water Temp Dewpoint Dewpoint Depression Visibility Wind Speed Wind Dir Waves Ship Positions

Syoueimaru

Last reported at 2017-Mar-19 06:33 UTC. Time now 2017-Mar-23 08:22 UTC.
Position N 34°54' E 139°48'.

Length 79 m; draft 4.1 m.

Type: Other ship. MMSI: 431500094.

Date/timePositionNaut miles runAvg speedWind from/ knotsBaromVisibWave heightAir tempDewpointWater temp
2017-Mar-19 06:33N 34°54' E 139°48'10 9.6
2017-Mar-19 05:33N 35°03' E 139°45'1010.2
2017-Mar-19 04:33N 35°13' E 139°47'1010.0
2017-Mar-19 03:33N 35°22' E 139°42'7 6.9
2017-Mar-19 02:33N 35°29' E 139°43'0 0.0
2017-Mar-19 01:34N 35°29' E 139°43'0 0.0
2017-Mar-19 00:34N 35°29' E 139°43'0 0.0
2017-Mar-18 23:33N 35°29' E 139°43'2 2.5
2017-Mar-18 22:34N 35°27' E 139°43'0 0.0
2017-Mar-18 21:33N 35°27' E 139°43'0 0.0
2017-Mar-18 20:33N 35°27' E 139°43'0 0.0
2017-Mar-18 19:33N 35°27' E 139°43'0 0.0
2017-Mar-18 18:33N 35°27' E 139°43'0 0.0
2017-Mar-18 17:33N 35°27' E 139°43'0 0.0
2017-Mar-18 16:33N 35°27' E 139°43'0 0.0
2017-Mar-18 15:30N 35°27' E 139°43'0 0.0
2017-Mar-18 14:33N 35°27' E 139°43'0 0.1
2017-Mar-18 13:33N 35°27' E 139°43'0 0.0
2017-Mar-18 12:33N 35°27' E 139°43'0 0.0
2017-Mar-18 11:33N 35°27' E 139°43'0 0.0
2017-Mar-18 10:33N 35°27' E 139°43'0 0.0
2017-Mar-18 09:33N 35°27' E 139°43'0 0.0
2017-Mar-18 08:33N 35°27' E 139°43'0 0.0
2017-Mar-18 07:33N 35°27' E 139°43'0 0.0
2017-Mar-18 06:33N 35°27' E 139°43'0 0.0
2017-Mar-18 05:33N 35°27' E 139°43'2 2.5
2017-Mar-18 04:33N 35°28' E 139°45'9 8.6
2017-Mar-18 03:30N 35°36' E 139°50'2 0.1
2017-Mar-17 05:10N 35°38' E 139°50'2 3.9
2017-Mar-17 04:34N 35°36' E 139°51'0 0.1
2017-Mar-17 01:04N 35°36' E 139°51'5 8.7
2017-Mar-17 00:33N 35°31' E 139°52'9 8.7
2017-Mar-16 23:33N 35°24' E 139°46'8 8.4
2017-Mar-16 22:33N 35°16' E 139°47'9 9.4
2017-Mar-16 21:33N 35°06' E 139°46'11 9.2
2017-Mar-16 20:22N 34°55' E 139°46'  
2017-Mar-10 12:33N 34°59' E 139°44'1010.1
2017-Mar-10 11:33N 35°09' E 139°45'1010.4
2017-Mar-10 10:33N 35°19' E 139°43'1010.0
2017-Mar-10 09:33N 35°29' E 139°42'1 0.8
2017-Mar-10 08:33N 35°29' E 139°43'0 0.0
2017-Mar-10 07:33N 35°29' E 139°43'0 0.0
2017-Mar-10 06:33N 35°29' E 139°43'2 2.0
2017-Mar-10 05:33N 35°27' E 139°42'5 4.5
2017-Mar-10 04:33N 35°29' E 139°48'1311.0
2017-Mar-10 03:20N 35°39' E 139°59'  
Track history (hours):
 
Tides and Currents Weather Stations Pressure Air Temp Water Temp Dewpoint Dewpoint Depression Visibility Wind Speed Wind Dir Waves Ship Positions

Syoueimaru

Last reported at 2017-Mar-19 06:33 UTC. Time now 2017-Mar-23 08:22 UTC.
Position N 34°54' E 139°48'.

Length 79 m; draft 4.1 m.

Type: Other ship. MMSI: 431500094.

Date/timePositionNaut miles runAvg speedWind from/ knotsBaromVisibWave heightAir tempDewpointWater temp
2017-Mar-19 06:33N 34°54' E 139°48'10 9.6
2017-Mar-19 05:33N 35°03' E 139°45'1010.2
2017-Mar-19 04:33N 35°13' E 139°47'1010.0
2017-Mar-19 03:33N 35°22' E 139°42'7 6.9
2017-Mar-19 02:33N 35°29' E 139°43'0 0.0
2017-Mar-19 01:34N 35°29' E 139°43'0 0.0
2017-Mar-19 00:34N 35°29' E 139°43'0 0.0
2017-Mar-18 23:33N 35°29' E 139°43'2 2.5
2017-Mar-18 22:34N 35°27' E 139°43'0 0.0
2017-Mar-18 21:33N 35°27' E 139°43'0 0.0
2017-Mar-18 20:33N 35°27' E 139°43'0 0.0
2017-Mar-18 19:33N 35°27' E 139°43'0 0.0
2017-Mar-18 18:33N 35°27' E 139°43'0 0.0
2017-Mar-18 17:33N 35°27' E 139°43'0 0.0
2017-Mar-18 16:33N 35°27' E 139°43'0 0.0
2017-Mar-18 15:30N 35°27' E 139°43'0 0.0
2017-Mar-18 14:33N 35°27' E 139°43'0 0.1
2017-Mar-18 13:33N 35°27' E 139°43'0 0.0
2017-Mar-18 12:33N 35°27' E 139°43'0 0.0
2017-Mar-18 11:33N 35°27' E 139°43'0 0.0
2017-Mar-18 10:33N 35°27' E 139°43'0 0.0
2017-Mar-18 09:33N 35°27' E 139°43'0 0.0
2017-Mar-18 08:33N 35°27' E 139°43'0 0.0
2017-Mar-18 07:33N 35°27' E 139°43'0 0.0
2017-Mar-18 06:33N 35°27' E 139°43'0 0.0
2017-Mar-18 05:33N 35°27' E 139°43'2 2.5
2017-Mar-18 04:33N 35°28' E 139°45'9 8.6
2017-Mar-18 03:30N 35°36' E 139°50'2 0.1
2017-Mar-17 05:10N 35°38' E 139°50'2 3.9
2017-Mar-17 04:34N 35°36' E 139°51'0 0.1
2017-Mar-17 01:04N 35°36' E 139°51'5 8.7
2017-Mar-17 00:33N 35°31' E 139°52'9 8.7
2017-Mar-16 23:33N 35°24' E 139°46'8 8.4
2017-Mar-16 22:33N 35°16' E 139°47'9 9.4
2017-Mar-16 21:33N 35°06' E 139°46'11 9.2
2017-Mar-16 20:22N 34°55' E 139°46'  
2017-Mar-10 12:33N 34°59' E 139°44'1010.1
2017-Mar-10 11:33N 35°09' E 139°45'1010.4
2017-Mar-10 10:33N 35°19' E 139°43'1010.0
2017-Mar-10 09:33N 35°29' E 139°42'1 0.8
2017-Mar-10 08:33N 35°29' E 139°43'0 0.0
2017-Mar-10 07:33N 35°29' E 139°43'0 0.0
2017-Mar-10 06:33N 35°29' E 139°43'2 2.0
2017-Mar-10 05:33N 35°27' E 139°42'5 4.5
2017-Mar-10 04:33N 35°29' E 139°48'1311.0
2017-Mar-10 03:20N 35°39' E 139°59'  

Dump ship's entire track history